Time;durP1;ratioP1;P1;durP2;ratioP2;P2;SDS_P1;SDS_P2;PMS_P1;PMS_P2;Temp;Humidity;BMP_temperature;BMP_pressure;BME280_temperature;BME280_humidity;BME280_pressure;Samples;Min_cycle;Max_cycle;Signal;HPM_P1;HPM_P2
2021/03/12 00:00:44;;;;;;;5.00;2.15;;;9.60;91.90;;;;;;5038235;28;20029;-71
2021/03/12 00:03:12;;;;;;;5.63;2.25;;;9.60;91.90;;;;;;5039076;28;20016;-71
2021/03/12 00:05:45;;;;;;;3.42;2.10;;;9.60;91.90;;;;;;5058492;28;20064;-71
2021/03/12 00:08:11;;;;;;;5.47;2.40;;;9.60;91.90;;;;;;5051489;28;20589;-71
2021/03/12 00:10:36;;;;;;;5.10;2.25;;;9.60;91.90;;;;;;5051046;28;20033;-71
2021/03/12 00:13:02;;;;;;;5.50;2.10;;;9.60;91.90;;;;;;5050059;28;20030;-71
2021/03/12 00:15:28;;;;;;;4.05;2.28;;;9.70;91.90;;;;;;5051735;28;20502;-71
2021/03/12 00:17:53;;;;;;;5.90;2.60;;;9.70;91.90;;;;;;5050299;28;20056;-71
2021/03/12 00:20:30;;;;;;;5.63;2.30;;;9.70;91.90;;;;;;5040512;28;20025;-71
2021/03/12 00:22:56;;;;;;;5.55;1.98;;;9.70;91.90;;;;;;5040899;28;20055;-71
2021/03/12 00:25:33;;;;;;;5.30;1.90;;;9.70;91.90;;;;;;5052277;28;20052;-71
2021/03/12 00:27:58;;;;;;;5.70;2.45;;;9.70;91.80;;;;;;5051154;28;20389;-71
2021/03/12 00:30:24;;;;;;;4.18;2.42;;;9.70;91.80;;;;;;5054946;28;20036;-71
2021/03/12 00:32:50;;;;;;;5.78;2.20;;;9.70;91.80;;;;;;5050379;28;20048;-71
2021/03/12 00:35:15;;;;;;;6.82;2.25;;;9.70;91.80;;;;;;5058373;28;20025;-71
2021/03/12 00:37:41;;;;;;;3.53;1.85;;;9.70;91.80;;;;;;5049819;28;20029;-71
2021/03/12 00:40:16;;;;;;;7.40;2.17;;;9.70;91.80;;;;;;5070531;28;20039;-71
2021/03/12 00:42:41;;;;;;;;;;;9.70;91.70;;;;;;5065748;28;20392;-71
2021/03/12 00:45:09;;;;;;;9.50;2.22;;;9.70;91.60;;;;;;5050167;28;19905;-71
2021/03/12 00:47:35;;;;;;;4.88;2.05;;;9.70;91.70;;;;;;5050230;28;20039;-71
2021/03/12 00:50:01;;;;;;;7.72;2.13;;;9.70;91.70;;;;;;5070087;28;20532;-71
2021/03/12 00:52:27;;;;;;;3.67;2.28;;;9.70;91.80;;;;;;5062245;28;20525;-71
2021/03/12 00:54:52;;;;;;;4.93;2.00;;;9.70;91.70;;;;;;5051468;28;20135;-70
2021/03/12 00:57:18;;;;;;;4.45;1.85;;;9.70;91.70;;;;;;5049376;28;20045;-71
2021/03/12 00:59:43;;;;;;;4.30;1.95;;;9.70;91.60;;;;;;5064839;28;20024;-71
2021/03/12 01:02:09;;;;;;;5.35;1.90;;;9.80;91.70;;;;;;5069552;28;20050;-71
2021/03/12 01:04:34;;;;;;;4.38;2.53;;;9.80;91.60;;;;;;5062274;28;20054;-71
2021/03/12 01:07:00;;;;;;;3.45;1.70;;;9.80;91.50;;;;;;5070921;28;20036;-71
2021/03/12 01:09:25;;;;;;;6.45;1.95;;;9.90;91.50;;;;;;5049271;28;20432;-71
2021/03/12 01:11:51;;;;;;;6.13;1.95;;;9.80;91.50;;;;;;5050913;28;20112;-72
2021/03/12 01:14:16;;;;;;;5.90;2.00;;;9.90;91.40;;;;;;5061834;28;20492;-70
2021/03/12 01:16:42;;;;;;;3.28;1.52;;;9.80;91.30;;;;;;5059936;28;20033;-70
2021/03/12 01:19:07;;;;;;;4.43;1.77;;;9.80;91.10;;;;;;5049757;28;20033;-70
2021/03/12 01:21:33;;;;;;;3.13;1.90;;;9.80;91.00;;;;;;5059977;28;20068;-69
2021/03/12 01:23:58;;;;;;;5.28;1.98;;;9.80;90.90;;;;;;5059625;28;20103;-69
2021/03/12 01:26:24;;;;;;;5.75;1.52;;;9.80;91.00;;;;;;5062994;28;20032;-70
2021/03/12 01:28:49;;;;;;;3.72;1.40;;;9.70;91.00;;;;;;5050627;28;20022;-70
2021/03/12 01:31:15;;;;;;;3.53;1.58;;;9.70;90.90;;;;;;5050749;28;20423;-70
2021/03/12 01:33:40;;;;;;;5.32;1.70;;;9.70;90.90;;;;;;5041585;28;20033;-70
2021/03/12 01:36:06;;;;;;;2.42;1.40;;;9.70;90.90;;;;;;5037835;28;20017;-70
2021/03/12 01:38:31;;;;;;;5.65;1.50;;;9.60;90.90;;;;;;5051600;28;20029;-70
2021/03/12 01:40:57;;;;;;;3.45;1.35;;;9.60;91.00;;;;;;5050884;28;20077;-72
2021/03/12 01:43:23;;;;;;;3.90;1.40;;;9.50;91.00;;;;;;5047956;28;20036;-73
2021/03/12 01:45:50;;;;;;;3.55;1.50;;;9.50;91.00;;;;;;5031505;28;20025;-73
2021/03/12 01:48:18;;;;;;;2.58;1.50;;;9.50;91.00;;;;;;5039863;28;20032;-73
2021/03/12 01:50:54;;;;;;;4.47;1.85;;;9.60;91.10;;;;;;5056712;28;20432;-73
2021/03/12 01:53:21;;;;;;;4.22;1.90;;;9.50;91.20;;;;;;5053546;28;20028;-73
2021/03/12 01:55:47;;;;;;;4.50;1.98;;;9.50;91.30;;;;;;5054514;28;20136;-73
2021/03/12 01:58:13;;;;;;;6.00;1.90;;;9.50;91.30;;;;;;5049555;28;20048;-73
2021/03/12 02:00:39;;;;;;;3.90;1.75;;;9.50;91.30;;;;;;5056943;28;20024;-73
2021/03/12 02:03:07;;;;;;;3.97;2.10;;;9.60;91.30;;;;;;5055844;28;20452;-70
2021/03/12 02:05:34;;;;;;;5.68;2.30;;;9.50;91.40;;;;;;5057527;28;20524;-70
2021/03/12 02:08:00;;;;;;;4.03;2.05;;;9.60;91.70;;;;;;5054393;28;20481;-71
2021/03/12 02:10:27;;;;;;;4.50;1.83;;;9.50;91.90;;;;;;5059441;28;20059;-71
2021/03/12 02:13:03;;;;;;;3.92;2.00;;;9.40;91.80;;;;;;5053196;28;20040;-70
2021/03/12 02:15:39;;;;;;;3.90;1.88;;;9.40;92.00;;;;;;5036079;28;20041;-70
2021/03/12 02:18:38;;;;;;;3.17;1.88;;;9.40;92.10;;;;;;5039936;28;20045;-71
2021/03/12 02:21:14;;;;;;;2.90;1.70;;;9.30;92.10;;;;;;5054602;28;20035;-72
2021/03/12 02:23:51;;;;;;;5.68;1.92;;;9.30;92.10;;;;;;5052891;28;20078;-71
2021/03/12 02:26:50;;;;;;;5.05;2.00;;;9.20;92.20;;;;;;5054303;28;20025;-71
2021/03/12 02:29:19;;;;;;;4.60;1.70;;;9.20;92.20;;;;;;5045877;28;20030;-71
2021/03/12 02:31:46;;;;;;;3.95;1.88;;;9.20;92.30;;;;;;5034326;28;20025;-71
2021/03/12 02:34:15;;;;;;;4.07;1.80;;;9.20;92.40;;;;;;5052689;28;20045;-71
2021/03/12 02:36:45;;;;;;;3.78;1.70;;;9.20;92.40;;;;;;5054224;28;20026;-71
2021/03/12 02:39:14;;;;;;;5.05;1.90;;;9.20;92.50;;;;;;5064245;28;20039;-71
2021/03/12 02:41:40;;;;;;;4.55;1.90;;;9.20;92.50;;;;;;5061541;28;20029;-71
2021/03/12 02:44:07;;;;;;;2.92;1.70;;;9.10;92.50;;;;;;5052857;28;20036;-71
2021/03/12 02:46:34;;;;;;;4.35;1.73;;;9.10;92.50;;;;;;5052668;28;20087;-71
2021/03/12 02:49:00;;;;;;;5.18;1.80;;;9.10;92.50;;;;;;5058943;28;20024;-71
2021/03/12 02:51:26;;;;;;;2.97;1.67;;;9.00;92.50;;;;;;5074138;28;20025;-71
2021/03/12 02:54:01;;;;;;;4.43;1.70;;;9.00;92.60;;;;;;5063518;28;20040;-71
2021/03/12 02:56:27;;;;;;;4.85;1.92;;;8.90;92.80;;;;;;5073911;28;20059;-71
2021/03/12 02:58:54;;;;;;;2.97;1.75;;;8.90;92.70;;;;;;5045653;28;20067;-71
2021/03/12 03:01:21;;;;;;;3.95;1.80;;;8.80;92.60;;;;;;5052979;28;20036;-71
2021/03/12 03:03:48;;;;;;;3.90;2.22;;;8.90;92.60;;;;;;5043197;28;20038;-71
2021/03/12 03:06:14;;;;;;;3.85;2.08;;;8.80;92.60;;;;;;5033694;28;20034;-71
2021/03/12 03:08:43;;;;;;;4.55;1.60;;;8.80;92.60;;;;;;5047026;28;20035;-71
2021/03/12 03:11:10;;;;;;;5.35;1.70;;;8.80;92.60;;;;;;5088891;28;20059;-71
2021/03/12 03:13:38;;;;;;;4.78;1.70;;;8.70;92.60;;;;;;5060445;28;20087;-71
2021/03/12 03:16:11;;;;;;;4.10;1.50;;;8.70;92.60;;;;;;5053435;28;20028;-71
2021/03/12 03:18:38;;;;;;;4.50;1.40;;;8.70;92.60;;;;;;5057032;28;20462;-71
2021/03/12 03:21:07;;;;;;;2.50;1.40;;;8.70;92.50;;;;;;5073422;28;20090;-71
2021/03/12 03:23:34;;;;;;;3.72;1.60;;;8.60;92.40;;;;;;5062354;28;20435;-71
2021/03/12 03:26:00;;;;;;;2.03;1.13;;;8.60;92.50;;;;;;5053053;28;20028;-70
2021/03/12 03:28:25;;;;;;;4.85;1.50;;;8.50;92.40;;;;;;5056215;28;20434;-71
2021/03/12 03:30:51;;;;;;;2.35;1.10;;;8.40;92.40;;;;;;5069874;28;20056;-70
2021/03/12 03:33:17;;;;;;;4.72;1.58;;;8.40;92.50;;;;;;5051580;28;20041;-71
2021/03/12 03:35:43;;;;;;;2.70;1.00;;;8.40;92.50;;;;;;5052378;28;20108;-71
2021/03/12 03:38:09;;;;;;;4.82;1.20;;;8.40;92.50;;;;;;5052128;28;20062;-70
2021/03/12 03:40:35;;;;;;;2.47;1.02;;;8.40;92.50;;;;;;5038557;28;20540;-70
2021/03/12 03:43:03;;;;;;;4.35;1.23;;;8.40;92.40;;;;;;5051736;28;20035;-71
2021/03/12 03:45:31;;;;;;;3.10;1.08;;;8.40;92.40;;;;;;5052643;28;20033;-72
2021/03/12 03:47:58;;;;;;;1.67;1.00;;;8.40;92.40;;;;;;5051130;28;20037;-71
2021/03/12 03:50:24;;;;;;;4.97;1.48;;;8.40;92.40;;;;;;5073364;28;20442;-71
2021/03/12 03:52:51;;;;;;;3.35;1.10;;;8.40;92.40;;;;;;5054501;28;20033;-71
2021/03/12 03:55:22;;;;;;;2.75;1.10;;;8.40;92.40;;;;;;5032937;28;20021;-71
2021/03/12 03:57:49;;;;;;;3.22;1.20;;;8.40;92.40;;;;;;5042614;28;20073;-71
2021/03/12 04:00:15;;;;;;;5.90;1.23;;;8.40;92.40;;;;;;5070495;28;20090;-71
2021/03/12 04:02:41;;;;;;;4.55;1.10;;;8.40;92.40;;;;;;5054671;28;20036;-71
2021/03/12 04:05:07;;;;;;;2.70;1.05;;;8.40;92.40;;;;;;5052006;28;20025;-70
2021/03/12 04:07:33;;;;;;;2.65;1.23;;;8.40;92.40;;;;;;5051602;28;20062;-71
2021/03/12 04:09:59;;;;;;;6.80;1.10;;;8.40;92.30;;;;;;5068438;28;20533;-70
2021/03/12 04:12:26;;;;;;;2.25;1.17;;;8.40;92.30;;;;;;5054411;28;20029;-71
2021/03/12 04:14:51;;;;;;;5.85;1.10;;;8.50;92.30;;;;;;5067962;28;20054;-70
2021/03/12 04:17:17;;;;;;;4.20;1.25;;;8.50;92.30;;;;;;5068110;28;20025;-71
2021/03/12 04:19:44;;;;;;;3.50;1.20;;;8.50;92.30;;;;;;5053917;28;20033;-71
2021/03/12 04:22:10;;;;;;;2.92;1.38;;;8.50;92.30;;;;;;5052425;28;20092;-71
2021/03/12 04:24:37;;;;;;;3.88;1.30;;;8.50;92.30;;;;;;5061832;28;20024;-72
2021/03/12 04:27:03;;;;;;;2.03;1.15;;;8.50;92.30;;;;;;5051519;28;20107;-71
2021/03/12 04:29:29;;;;;;;4.60;1.50;;;8.50;92.30;;;;;;5050148;28;20029;-71
2021/03/12 04:31:55;;;;;;;3.33;1.13;;;8.50;92.20;;;;;;5052277;28;20021;-71
2021/03/12 04:34:21;;;;;;;5.18;1.40;;;8.40;92.20;;;;;;5060925;28;20490;-71
2021/03/12 04:36:47;;;;;;;4.53;1.20;;;8.50;92.30;;;;;;5051849;28;20024;-71
2021/03/12 04:39:13;;;;;;;3.85;1.58;;;8.40;92.30;;;;;;5050211;28;20428;-71
2021/03/12 04:41:39;;;;;;;2.90;1.17;;;8.40;92.30;;;;;;5031766;28;20174;-71
2021/03/12 04:44:06;;;;;;;4.72;1.50;;;8.40;92.30;;;;;;5050071;28;20024;-70
2021/03/12 04:46:36;;;;;;;4.10;1.52;;;8.40;92.40;;;;;;5051713;28;20033;-70
2021/03/12 04:49:02;;;;;;;3.42;1.40;;;8.40;92.40;;;;;;5049925;28;20021;-71
2021/03/12 04:51:27;;;;;;;4.43;1.55;;;8.40;92.40;;;;;;5050806;28;20155;-71
2021/03/12 04:53:53;;;;;;;2.40;1.15;;;8.40;92.40;;;;;;5048086;28;20036;-72
2021/03/12 04:56:19;;;;;;;4.55;1.38;;;8.40;92.40;;;;;;5051831;28;20047;-71
2021/03/12 04:58:45;;;;;;;4.07;1.30;;;8.40;92.50;;;;;;5055836;28;20048;-72
2021/03/12 05:01:11;;;;;;;4.82;1.35;;;8.40;92.50;;;;;;5071644;28;20020;-72
2021/03/12 05:03:37;;;;;;;3.00;1.20;;;8.40;92.50;;;;;;5058137;28;20382;-72
2021/03/12 05:06:06;;;;;;;2.30;1.40;;;8.40;92.60;;;;;;5051403;28;20036;-72
2021/03/12 05:08:33;;;;;;;4.78;1.63;;;8.40;92.60;;;;;;5053773;28;20513;-72
2021/03/12 05:11:09;;;;;;;4.22;1.67;;;8.40;92.60;;;;;;5071611;28;20031;-72
2021/03/12 05:13:35;;;;;;;3.65;1.40;;;8.40;92.50;;;;;;5064256;28;20062;-72
2021/03/12 05:16:01;;;;;;;5.20;2.00;;;8.40;92.50;;;;;;5076761;28;20504;-71
2021/03/12 05:18:27;;;;;;;3.92;1.73;;;8.40;92.50;;;;;;5043988;28;20041;-71
2021/03/12 05:20:53;;;;;;;4.07;2.00;;;8.40;92.50;;;;;;5039273;28;20029;-71
2021/03/12 05:23:20;;;;;;;3.72;2.15;;;8.40;92.50;;;;;;5044264;28;20032;-71
2021/03/12 05:25:46;;;;;;;4.30;1.83;;;8.40;92.50;;;;;;5054809;28;20025;-71
2021/03/12 05:28:11;;;;;;;3.55;1.70;;;8.40;92.50;;;;;;5054189;28;20554;-71
2021/03/12 05:30:37;;;;;;;6.47;1.95;;;8.40;92.50;;;;;;5051059;28;20079;-72
2021/03/12 05:33:04;;;;;;;3.78;1.98;;;8.40;92.60;;;;;;5037840;28;20032;-72
2021/03/12 05:35:30;;;;;;;5.10;2.10;;;8.40;92.70;;;;;;5054243;28;20112;-72
2021/03/12 05:37:55;;;;;;;4.03;2.05;;;8.40;92.70;;;;;;5054018;28;20541;-71
2021/03/12 05:40:21;;;;;;;5.20;2.22;;;8.40;92.60;;;;;;5053217;28;20021;-70
2021/03/12 05:42:50;;;;;;;4.10;1.90;;;8.40;92.60;;;;;;5053807;28;20029;-71
2021/03/12 05:45:17;;;;;;;3.67;2.28;;;8.40;92.70;;;;;;5074852;28;20481;-71
2021/03/12 05:47:43;;;;;;;5.65;2.42;;;8.40;92.80;;;;;;5061901;28;20107;-71
2021/03/12 05:50:09;;;;;;;6.55;2.40;;;8.40;92.80;;;;;;5054244;28;20040;-70
2021/03/12 05:52:35;;;;;;;3.47;2.28;;;8.40;93.20;;;;;;5053358;28;20029;-70
2021/03/12 05:55:01;;;;;;;5.57;2.85;;;8.40;93.10;;;;;;5071158;28;20027;-70
2021/03/12 05:57:29;;;;;;;4.75;2.40;;;8.40;92.90;;;;;;5049007;28;20498;-70
2021/03/12 06:00:01;;;;;;;3.95;2.28;;;8.40;92.90;;;;;;5052789;28;20040;-70
2021/03/12 06:02:27;;;;;;;5.50;2.45;;;8.30;92.90;;;;;;5053981;28;20047;-70
2021/03/12 06:04:52;;;;;;;4.60;2.15;;;8.30;92.90;;;;;;5068406;28;20067;-70
2021/03/12 06:07:18;;;;;;;4.53;2.72;;;8.40;92.90;;;;;;5037852;28;20022;-72
2021/03/12 06:09:44;;;;;;;5.57;2.10;;;8.30;92.90;;;;;;5050184;28;20048;-72
2021/03/12 06:12:11;;;;;;;8.93;2.53;;;8.30;92.90;;;;;;5054042;28;20025;-72
2021/03/12 06:14:51;;;;;;;5.75;1.98;;;8.30;92.90;;;;;;5065112;28;20040;-71
2021/03/12 06:17:37;;;;;;;6.30;2.30;;;8.40;93.10;;;;;;5068058;28;20075;-70
2021/03/12 06:20:14;;;;;;;4.15;2.30;;;8.40;92.80;;;;;;5053014;28;20397;-72
2021/03/12 06:22:51;;;;;;;5.85;2.53;;;8.30;92.70;;;;;;5053911;28;20393;-73
2021/03/12 06:25:22;;;;;;;4.55;2.10;;;8.30;92.70;;;;;;5054067;28;20108;-71
2021/03/12 06:27:49;;;;;;;5.45;2.55;;;8.40;92.70;;;;;;5053475;28;20355;-72
2021/03/12 06:30:17;;;;;;;5.68;2.70;;;8.30;92.60;;;;;;5068815;28;20362;-72
2021/03/12 06:32:46;;;;;;;3.85;2.25;;;8.30;92.60;;;;;;5053260;28;20032;-72
2021/03/12 06:35:17;;;;;;;3.65;2.58;;;8.40;92.60;;;;;;5060097;28;20045;-72
2021/03/12 06:37:47;;;;;;;4.22;2.50;;;8.40;92.60;;;;;;5033983;28;20397;-73
2021/03/12 06:40:18;;;;;;;4.32;2.60;;;8.40;92.70;;;;;;5053246;28;20070;-73
2021/03/12 06:43:14;;;;;;;4.50;3.15;;;8.40;92.80;;;;;;5052368;28;20514;-73
2021/03/12 06:45:42;;;;;;;7.65;3.47;;;8.40;93.00;;;;;;5051560;28;20041;-73
2021/03/12 06:48:25;;;;;;;5.03;3.13;;;8.40;93.10;;;;;;5044192;28;20493;-73
2021/03/12 06:50:54;;;;;;;6.20;3.30;;;8.30;93.30;;;;;;5058237;28;20025;-73
2021/03/12 06:53:34;;;;;;;10.35;3.83;;;8.40;93.50;;;;;;5052627;28;20450;-73
2021/03/12 06:56:03;;;;;;;6.63;3.78;;;8.40;93.60;;;;;;5061412;28;20033;-73
2021/03/12 06:58:30;;;;;;;7.25;3.50;;;8.40;93.60;;;;;;5048341;28;20417;-72
2021/03/12 07:00:56;;;;;;;7.13;3.67;;;8.30;93.60;;;;;;5053687;28;20505;-69
2021/03/12 07:03:24;;;;;;;5.68;3.38;;;8.40;93.60;;;;;;5051968;28;20060;-69
2021/03/12 07:06:20;;;;;;;7.47;3.63;;;8.40;93.70;;;;;;5053143;28;20025;-68
2021/03/12 07:08:47;;;;;;;6.70;3.60;;;8.40;93.70;;;;;;5040793;28;20519;-69
2021/03/12 07:11:16;;;;;;;6.28;3.70;;;8.40;93.80;;;;;;5071778;28;20028;-69
2021/03/12 07:13:42;;;;;;;6.40;4.25;;;8.50;93.80;;;;;;5065530;28;20044;-70
2021/03/12 07:16:07;;;;;;;7.80;3.97;;;8.50;93.70;;;;;;5073458;28;20028;-69
2021/03/12 07:18:33;;;;;;;7.93;3.67;;;8.60;93.70;;;;;;5067958;28;20556;-68
2021/03/12 07:20:58;;;;;;;6.00;3.70;;;8.70;93.60;;;;;;5073379;28;20157;-70
2021/03/12 07:23:27;;;;;;;5.68;3.88;;;8.70;93.60;;;;;;5056133;28;20070;-71
2021/03/12 07:25:54;;;;;;;6.57;3.28;;;8.70;93.50;;;;;;5037727;28;20040;-71
2021/03/12 07:28:22;;;;;;;7.50;3.72;;;8.80;93.50;;;;;;5050732;28;20147;-70
2021/03/12 07:30:50;;;;;;;4.88;3.35;;;8.90;93.50;;;;;;5062344;28;20032;-70
2021/03/12 07:33:19;;;;;;;6.03;3.80;;;9.00;93.30;;;;;;5048574;28;20090;-71
2021/03/12 07:35:45;;;;;;;5.93;3.63;;;9.00;93.20;;;;;;5038696;28;20033;-71
2021/03/12 07:38:12;;;;;;;5.95;3.78;;;9.00;93.00;;;;;;5050848;28;20113;-71
2021/03/12 07:40:38;;;;;;;6.88;3.58;;;9.10;93.00;;;;;;5065071;28;20025;-71
2021/03/12 07:43:06;;;;;;;7.80;3.90;;;9.10;92.90;;;;;;5050476;28;20028;-70
2021/03/12 07:45:32;;;;;;;6.93;3.80;;;9.20;92.90;;;;;;5051133;28;20206;-71
2021/03/12 07:47:58;;;;;;;7.47;4.43;;;9.20;92.70;;;;;;5051637;28;20025;-71
2021/03/12 07:50:32;;;;;;;5.72;3.60;;;9.30;92.60;;;;;;5051086;28;20032;-71
2021/03/12 07:52:57;;;;;;;7.50;3.80;;;9.30;92.50;;;;;;5034139;28;20176;-71
2021/03/12 07:55:35;;;;;;;4.95;3.17;;;9.30;92.20;;;;;;5051045;28;20072;-71
2021/03/12 07:58:05;;;;;;;6.75;3.72;;;9.30;92.10;;;;;;5068295;28;20049;-71
2021/03/12 08:00:51;;;;;;;7.47;3.72;;;9.40;92.10;;;;;;5056483;28;20040;-71
2021/03/12 08:03:31;;;;;;;5.55;3.15;;;9.40;91.90;;;;;;5054491;28;20032;-70
2021/03/12 08:05:57;;;;;;;8.48;3.40;;;9.30;91.80;;;;;;5053523;28;20465;-71
2021/03/12 08:08:31;;;;;;;6.88;3.20;;;9.40;91.80;;;;;;5054914;28;20120;-71
2021/03/12 08:11:16;;;;;;;6.55;3.55;;;9.30;91.60;;;;;;5065779;28;20517;-71
2021/03/12 08:13:42;;;;;;;5.15;3.45;;;9.30;91.50;;;;;;5043705;28;20072;-71
2021/03/12 08:16:08;;;;;;;7.20;3.38;;;9.40;91.50;;;;;;5046385;28;20024;-70
2021/03/12 08:18:34;;;;;;;6.13;3.47;;;9.40;91.40;;;;;;5059660;28;20032;-71
2021/03/12 08:21:19;;;;;;;5.05;3.40;;;9.40;91.30;;;;;;5055741;28;20032;-70
2021/03/12 08:23:45;;;;;;;6.90;3.67;;;9.50;91.10;;;;;;5055692;28;20029;-70
2021/03/12 08:26:11;;;;;;;7.63;3.40;;;9.50;91.20;;;;;;5051165;28;20021;-70
2021/03/12 08:28:36;;;;;;;6.13;3.20;;;9.50;91.10;;;;;;5047824;28;20025;-70
2021/03/12 08:31:03;;;;;;;6.03;3.22;;;9.60;91.10;;;;;;5060795;28;20088;-72
2021/03/12 08:33:31;;;;;;;5.25;3.58;;;9.60;91.00;;;;;;5059551;28;20033;-71
2021/03/12 08:35:58;;;;;;;7.38;3.72;;;9.70;90.80;;;;;;5050267;28;20037;-72
2021/03/12 08:38:24;;;;;;;5.85;3.33;;;9.80;90.70;;;;;;5053615;28;20032;-71
2021/03/12 08:40:55;;;;;;;7.10;3.50;;;9.80;90.40;;;;;;5072036;28;20081;-72
2021/03/12 08:43:24;;;;;;;7.03;3.50;;;9.80;90.40;;;;;;5062445;28;20056;-77
2021/03/12 08:45:56;;;;;;;7.82;3.83;;;9.80;90.40;;;;;;5050316;28;20025;-70
2021/03/12 08:48:26;;;;;;;5.55;3.40;;;9.80;90.20;;;;;;5057957;28;20032;-75
2021/03/12 08:51:06;;;;;;;6.82;3.58;;;9.90;90.20;;;;;;5051080;28;20033;-74
2021/03/12 08:53:37;;;;;;;5.72;3.70;;;10.00;90.10;;;;;;5048773;28;20048;-70
2021/03/12 08:56:04;;;;;;;6.32;3.70;;;10.00;89.80;;;;;;5048429;28;20039;-69
2021/03/12 08:58:37;;;;;;;6.53;3.53;;;10.10;89.40;;;;;;5047336;28;20135;-71
2021/03/12 09:01:15;;;;;;;7.07;3.42;;;10.10;88.60;;;;;;5051589;28;20029;-71
2021/03/12 09:03:48;;;;;;;6.78;3.47;;;10.10;88.40;;;;;;5047388;28;20113;-70
2021/03/12 09:06:18;;;;;;;6.15;3.28;;;10.00;87.50;;;;;;5080974;28;20123;-72
2021/03/12 09:08:45;;;;;;;8.80;3.55;;;10.00;87.40;;;;;;5057924;28;20029;-72
2021/03/12 09:11:16;;;;;;;5.47;3.00;;;9.90;87.50;;;;;;5056701;28;20466;-70
2021/03/12 09:13:44;;;;;;;7.55;3.33;;;10.00;87.10;;;;;;5050004;28;20033;-70
2021/03/12 09:16:11;;;;;;;6.78;3.30;;;10.00;87.40;;;;;;5052470;28;20021;-70
2021/03/12 09:18:38;;;;;;;7.60;3.45;;;10.00;87.10;;;;;;5054787;28;20039;-70
2021/03/12 09:21:06;;;;;;;7.10;3.67;;;10.00;87.10;;;;;;5070052;28;20025;-70
2021/03/12 09:23:48;;;;;;;4.53;3.22;;;10.00;87.30;;;;;;5059358;28;20185;-70
2021/03/12 09:26:25;;;;;;;5.43;3.58;;;10.10;86.40;;;;;;5051335;28;20030;-70
2021/03/12 09:28:53;;;;;;;4.90;3.45;;;10.10;86.80;;;;;;5065813;28;20036;-70
2021/03/12 09:31:20;;;;;;;7.82;3.35;;;10.20;86.80;;;;;;5054566;28;20056;-69
2021/03/12 09:33:50;;;;;;;5.57;3.30;;;10.30;86.40;;;;;;5058605;28;20040;-70
2021/03/12 09:36:32;;;;;;;7.25;3.45;;;10.40;86.30;;;;;;5053466;28;20415;-70
2021/03/12 09:39:06;;;;;;;6.15;3.78;;;10.40;85.60;;;;;;5052068;28;20029;-71
2021/03/12 09:41:32;;;;;;;5.63;3.55;;;10.50;85.20;;;;;;5047966;28;20533;-70
2021/03/12 09:44:10;;;;;;;8.60;3.90;;;10.50;84.20;;;;;;5068376;28;20119;-70
2021/03/12 09:46:39;;;;;;;7.97;3.42;;;10.50;83.60;;;;;;5048047;28;20028;-70
2021/03/12 09:49:20;;;;;;;7.95;3.80;;;10.60;83.30;;;;;;5042040;28;20040;-71
2021/03/12 09:51:47;;;;;;;6.82;3.20;;;10.50;81.40;;;;;;5048046;28;20558;-71
2021/03/12 09:54:15;;;;;;;5.07;2.90;;;10.60;81.10;;;;;;5056568;28;20073;-71
2021/03/12 09:56:46;;;;;;;8.18;3.10;;;10.60;81.50;;;;;;5046812;28;20017;-69
2021/03/12 09:59:12;;;;;;;5.25;3.20;;;10.70;81.90;;;;;;5046966;28;20037;-69
2021/03/12 10:01:38;;;;;;;4.93;2.90;;;10.80;81.60;;;;;;5050266;28;20028;-70
2021/03/12 10:04:32;;;;;;;6.50;3.10;;;10.90;80.40;;;;;;5049244;28;20025;-70
2021/03/12 10:07:06;;;;;;;7.35;3.03;;;10.90;79.30;;;;;;5049656;28;20071;-70
2021/03/12 10:09:35;;;;;;;6.07;2.67;;;11.00;79.20;;;;;;5048506;28;20021;-70
2021/03/12 10:12:03;;;;;;;5.65;2.70;;;11.10;78.40;;;;;;5066408;28;20046;-75
2021/03/12 10:14:35;;;;;;;9.45;2.60;;;11.20;78.50;;;;;;5052669;28;20036;-77
2021/03/12 10:17:07;;;;;;;5.55;3.10;;;11.20;77.20;;;;;;5058671;28;20472;-76
2021/03/12 10:19:58;;;;;;;10.57;2.90;;;11.30;77.00;;;;;;5074421;28;20102;-76
2021/03/12 10:22:38;;;;;;;5.22;2.70;;;11.40;76.90;;;;;;5049827;28;20032;-76
2021/03/12 10:25:26;;;;;;;5.97;3.50;;;11.40;76.40;;;;;;5054943;28;20033;-78
2021/03/12 10:28:07;;;;;;;9.43;3.40;;;11.40;76.30;;;;;;5058695;28;20032;-77
2021/03/12 10:30:50;;;;;;;6.40;2.80;;;11.50;75.90;;;;;;5057789;28;20029;-77
2021/03/12 10:33:24;;;;;;;8.65;2.75;;;11.50;75.30;;;;;;5055344;28;20037;-76
2021/03/12 10:35:57;;;;;;;11.30;3.70;;;11.50;74.00;;;;;;5056873;28;20025;-76
2021/03/12 10:38:25;;;;;;;5.82;2.50;;;11.50;73.40;;;;;;5045624;28;20441;-69
2021/03/12 10:41:05;;;;;;;6.72;2.65;;;11.50;72.60;;;;;;5053467;28;20049;-69
2021/03/12 10:43:33;;;;;;;4.65;2.70;;;11.60;72.50;;;;;;5053755;28;20032;-69
2021/03/12 10:46:10;;;;;;;4.47;2.40;;;11.60;72.30;;;;;;5052523;28;20044;-69
2021/03/12 10:48:46;;;;;;;7.53;2.70;;;11.60;72.30;;;;;;5050706;28;20033;-69
2021/03/12 10:51:14;;;;;;;6.65;2.95;;;11.70;72.50;;;;;;5052358;28;20071;-71
2021/03/12 10:53:49;;;;;;;6.75;3.13;;;11.70;71.80;;;;;;5051525;28;20033;-72
2021/03/12 10:56:15;;;;;;;7.13;3.33;;;11.80;70.90;;;;;;5053324;28;20540;-70
2021/03/12 10:58:41;;;;;;;7.13;2.75;;;11.80;69.60;;;;;;5048700;28;20048;-69
2021/03/12 11:01:20;;;;;;;6.90;2.40;;;11.90;68.10;;;;;;5035500;28;20047;-71
2021/03/12 11:03:47;;;;;;;6.13;2.33;;;11.90;67.60;;;;;;5047045;28;20045;-71
2021/03/12 11:06:14;;;;;;;10.32;3.10;;;11.90;67.40;;;;;;5074015;28;20057;-71
2021/03/12 11:08:41;;;;;;;8.82;2.67;;;11.90;67.00;;;;;;5058040;28;20029;-70
2021/03/12 11:11:09;;;;;;;6.47;2.55;;;11.90;66.70;;;;;;5053300;28;20094;-70
2021/03/12 11:13:36;;;;;;;4.13;2.28;;;12.00;66.80;;;;;;5052463;28;20040;-71
2021/03/12 11:16:02;;;;;;;4.72;2.67;;;12.00;65.90;;;;;;5046337;28;20120;-70
2021/03/12 11:18:30;;;;;;;5.53;2.28;;;12.00;65.70;;;;;;5049639;28;20025;-69
2021/03/12 11:20:59;;;;;;;3.88;2.20;;;12.00;64.40;;;;;;5061318;28;20028;-69
2021/03/12 11:23:25;;;;;;;5.50;2.58;;;12.00;63.00;;;;;;5053663;28;20041;-70
2021/03/12 11:25:51;;;;;;;16.42;3.40;;;12.10;63.60;;;;;;5052498;28;20021;-71
2021/03/12 11:28:17;;;;;;;7.70;2.55;;;12.00;63.40;;;;;;5052869;28;20106;-70
2021/03/12 11:30:42;;;;;;;5.47;2.70;;;12.00;63.40;;;;;;5051757;28;20025;-70
2021/03/12 11:33:08;;;;;;;6.05;2.70;;;12.00;62.80;;;;;;5052840;28;20513;-70
2021/03/12 11:35:33;;;;;;;4.35;2.47;;;12.10;62.50;;;;;;5051095;28;20055;-70
2021/03/12 11:37:59;;;;;;;5.38;2.90;;;12.10;62.60;;;;;;5053096;28;20017;-70
2021/03/12 11:40:25;;;;;;;7.18;3.00;;;12.20;62.20;;;;;;5051502;28;20033;-70
2021/03/12 11:42:51;;;;;;;7.72;3.45;;;12.30;61.40;;;;;;5052032;28;20504;-70
2021/03/12 11:45:18;;;;;;;6.30;2.78;;;12.30;61.20;;;;;;5052290;28;20032;-70
2021/03/12 11:47:45;;;;;;;7.25;3.58;;;12.30;60.10;;;;;;5052755;28;20029;-68
2021/03/12 11:50:14;;;;;;;5.72;3.00;;;12.30;60.90;;;;;;5052062;28;20119;-68
2021/03/12 11:52:40;;;;;;;4.85;3.22;;;12.40;59.80;;;;;;5047394;28;20022;-69
2021/03/12 11:55:07;;;;;;;6.20;2.80;;;12.30;59.40;;;;;;5045599;28;20044;-70
2021/03/12 11:57:34;;;;;;;4.70;2.95;;;12.30;58.90;;;;;;5052213;28;20563;-71
2021/03/12 12:00:00;;;;;;;5.45;2.90;;;12.30;58.40;;;;;;5036775;28;20505;-72
2021/03/12 12:02:26;;;;;;;4.47;2.72;;;12.30;59.00;;;;;;5048435;28;20061;-71
2021/03/12 12:04:51;;;;;;;6.78;3.30;;;12.30;59.10;;;;;;5050412;28;20055;-69
2021/03/12 12:07:17;;;;;;;6.32;3.20;;;12.30;58.60;;;;;;5046283;28;20029;-69
2021/03/12 12:09:43;;;;;;;6.65;3.10;;;12.40;58.20;;;;;;5043443;28;20386;-72
2021/03/12 12:12:11;;;;;;;10.88;3.55;;;12.40;58.30;;;;;;5040748;28;20108;-72
2021/03/12 12:14:38;;;;;;;5.32;3.25;;;12.40;57.80;;;;;;5054711;28;20409;-72
2021/03/12 12:17:04;;;;;;;6.63;3.80;;;12.40;57.20;;;;;;5051164;28;20385;-72
2021/03/12 12:19:31;;;;;;;5.13;3.17;;;12.50;57.30;;;;;;5047807;28;20029;-71
2021/03/12 12:21:56;;;;;;;6.75;3.08;;;12.50;57.30;;;;;;5032429;28;20394;-70
2021/03/12 12:24:22;;;;;;;7.10;3.65;;;12.60;56.80;;;;;;5053888;28;20221;-71
2021/03/12 12:26:48;;;;;;;5.18;3.00;;;12.60;56.40;;;;;;5069377;28;20424;-71
2021/03/12 12:29:13;;;;;;;8.23;2.88;;;12.70;56.60;;;;;;5061259;28;20500;-71
2021/03/12 12:31:39;;;;;;;5.05;2.80;;;12.80;56.30;;;;;;5060418;28;20025;-71
2021/03/12 12:34:05;;;;;;;5.30;2.80;;;12.90;55.50;;;;;;5049421;28;20135;-72
2021/03/12 12:36:32;;;;;;;4.82;2.70;;;13.00;55.00;;;;;;5050101;28;20082;-72
2021/03/12 12:38:58;;;;;;;7.55;2.88;;;13.10;55.20;;;;;;5043664;28;20057;-72
2021/03/12 12:41:24;;;;;;;5.68;2.72;;;13.10;54.90;;;;;;5051792;28;20053;-73
2021/03/12 12:43:50;;;;;;;3.55;2.40;;;13.20;54.80;;;;;;5050188;28;20029;-72
2021/03/12 12:46:16;;;;;;;4.18;2.40;;;13.30;54.00;;;;;;5058204;28;20033;-72
2021/03/12 12:48:42;;;;;;;7.13;3.05;;;13.30;54.40;;;;;;5058745;28;20036;-72
2021/03/12 12:51:08;;;;;;;6.40;2.50;;;13.40;54.20;;;;;;5075081;28;20031;-73
2021/03/12 12:53:35;;;;;;;5.85;2.55;;;13.30;53.70;;;;;;5063503;28;20118;-72
2021/03/12 12:56:04;;;;;;;3.33;2.40;;;13.40;54.10;;;;;;5050560;28;20479;-72
2021/03/12 12:58:32;;;;;;;5.97;2.60;;;13.40;53.70;;;;;;5057709;28;20036;-72
2021/03/12 13:00:58;;;;;;;7.07;2.58;;;13.50;53.90;;;;;;5072569;28;20043;-72